Time;durP1;ratioP1;P1;durP2;ratioP2;P2;SDS_P1;SDS_P2;PMS_P1;PMS_P2;Temp;Humidity;BMP_temperature;BMP_pressure;BME280_temperature;BME280_humidity;BME280_pressure;Samples;Min_cycle;Max_cycle;Signal;HPM_P1;HPM_P2
2021/07/06 00:01:23;;;;;;;3.55;3.25;;;;;;;16.35;50.99;100652.25;5042686;28;20053;-70
2021/07/06 00:03:48;;;;;;;6.03;3.33;;;;;;;16.37;51.01;100648.53;5018478;28;20048;-69
2021/07/06 00:06:13;;;;;;;9.07;4.07;;;;;;;16.36;50.94;100651.31;5048345;28;20332;-67
2021/07/06 00:08:39;;;;;;;4.95;3.63;;;;;;;16.37;50.91;100645.91;5043057;28;20036;-68
2021/07/06 00:11:04;;;;;;;3.88;2.97;;;;;;;16.36;50.94;100643.41;5039944;28;20040;-68
2021/07/06 00:13:30;;;;;;;9.00;3.42;;;;;;;16.33;51.05;100640.94;5040213;28;20029;-68
2021/07/06 00:15:56;;;;;;;5.80;3.65;;;;;;;16.38;50.89;100639.69;5039685;28;20051;-68
2021/07/06 00:18:21;;;;;;;5.43;3.20;;;;;;;16.38;50.89;100629.16;5040485;28;20044;-70
2021/07/06 00:20:47;;;;;;;4.97;3.92;;;;;;;16.31;51.25;100624.38;5044904;28;20021;-67
2021/07/06 00:23:12;;;;;;;4.50;3.42;;;;;;;16.36;50.93;100623.13;5045495;28;20235;-68
2021/07/06 00:25:38;;;;;;;8.23;3.63;;;;;;;16.37;51.16;100619.53;5042510;28;20040;-70
2021/07/06 00:28:04;;;;;;;4.53;4.00;;;;;;;16.36;50.79;100622.28;5046908;28;20029;-71
2021/07/06 00:30:30;;;;;;;7.50;3.70;;;;;;;16.31;51.14;100614.69;5040686;28;20033;-70
2021/07/06 00:32:56;;;;;;;5.93;4.05;;;;;;;16.36;50.80;100617.84;5042689;28;20557;-70
2021/07/06 00:35:22;;;;;;;5.95;4.22;;;;;;;16.29;50.66;100613.97;5040320;28;20034;-70
2021/07/06 00:37:48;;;;;;;5.50;4.50;;;;;;;16.29;51.30;100611.31;5040450;28;20041;-70
2021/07/06 00:40:14;;;;;;;5.90;3.83;;;;;;;16.24;51.39;100605.50;5041872;28;20041;-70
2021/07/06 00:42:42;;;;;;;7.18;4.03;;;;;;;16.31;51.15;100606.78;5042706;28;20389;-70
2021/07/06 00:45:09;;;;;;;4.13;3.72;;;;;;;16.36;50.84;100594.13;5056070;28;20037;-69
2021/07/06 00:47:37;;;;;;;8.00;4.68;;;;;;;16.37;50.47;100587.03;5039664;28;20136;-70
2021/07/06 00:50:07;;;;;;;9.70;4.32;;;;;;;16.27;50.98;100586.00;5040296;28;20547;-70
2021/07/06 00:52:33;;;;;;;4.75;3.88;;;;;;;16.34;50.65;100582.84;5041785;28;20128;-69
2021/07/06 00:54:58;;;;;;;5.53;3.92;;;;;;;16.35;50.67;100581.91;5042136;28;20043;-69
2021/07/06 00:57:31;;;;;;;5.65;4.25;;;;;;;16.38;50.59;100576.41;5044403;28;20113;-69
2021/07/06 01:00:06;;;;;;;5.63;4.00;;;;;;;16.37;51.12;100573.88;5041696;28;20071;-69
2021/07/06 01:02:32;;;;;;;7.47;4.47;;;;;;;16.39;50.65;100570.16;5037803;28;20057;-69
2021/07/06 01:04:57;;;;;;;8.88;4.10;;;;;;;16.36;50.54;100564.28;5039733;28;20037;-69
2021/07/06 01:07:23;;;;;;;4.43;4.03;;;;;;;16.39;50.32;100559.59;5039427;28;20033;-70
2021/07/06 01:09:49;;;;;;;5.85;4.38;;;;;;;16.41;50.35;100557.72;5041141;28;20098;-68
2021/07/06 01:12:14;;;;;;;5.78;4.63;;;;;;;16.34;50.35;100550.34;5039972;28;20497;-68
2021/07/06 01:14:40;;;;;;;7.20;4.63;;;;;;;16.25;50.35;100551.00;5041730;28;20137;-68
2021/07/06 01:17:07;;;;;;;6.78;3.90;;;;;;;16.33;50.46;100543.38;5045544;28;20097;-69
2021/07/06 01:19:32;;;;;;;4.53;4.10;;;;;;;16.40;50.09;100542.84;5045597;28;20041;-69
2021/07/06 01:22:05;;;;;;;8.65;4.97;;;;;;;16.36;50.22;100544.00;5038785;28;20329;-69
2021/07/06 01:24:35;;;;;;;5.60;4.70;;;;;;;16.33;50.09;100546.88;5039134;28;20039;-68
2021/07/06 01:27:00;;;;;;;5.72;4.20;;;;;;;16.20;50.31;100543.41;5036473;28;20052;-68
2021/07/06 01:29:26;;;;;;;5.13;4.32;;;;;;;16.40;49.83;100540.22;5039612;28;20065;-69
2021/07/06 01:31:51;;;;;;;4.85;4.32;;;;;;;16.32;49.96;100542.53;5059489;28;20041;-68
2021/07/06 01:34:17;;;;;;;5.40;4.10;;;;;;;16.44;49.66;100546.09;5041201;28;20024;-68
2021/07/06 01:36:47;;;;;;;6.00;3.65;;;;;;;16.56;49.46;100539.13;5038021;28;20041;-69
2021/07/06 01:39:13;;;;;;;7.60;3.42;;;;;;;16.62;49.42;100543.97;5037622;28;20692;-68
2021/07/06 01:41:41;;;;;;;6.32;3.47;;;;;;;16.60;49.58;100535.34;5027947;28;20552;-68
2021/07/06 01:44:24;;;;;;;5.78;4.13;;;;;;;16.49;49.25;100546.66;5037386;28;20032;-68
2021/07/06 01:46:50;;;;;;;8.00;3.50;;;;;;;16.66;48.79;100531.41;5040385;28;20524;-68
2021/07/06 01:49:16;;;;;;;7.93;3.40;;;;;;;16.49;49.56;100543.13;5040999;28;20053;-67
2021/07/06 01:51:43;;;;;;;4.18;3.42;;;;;;;16.42;49.51;100548.88;5038585;28;20041;-67
2021/07/06 01:54:09;;;;;;;8.05;3.60;;;;;;;16.48;49.79;100542.31;5041825;28;20677;-72
2021/07/06 01:56:37;;;;;;;6.30;4.22;;;;;;;16.41;49.68;100530.50;5042410;28;20145;-72
2021/07/06 01:59:03;;;;;;;7.10;3.65;;;;;;;16.39;49.79;100520.03;5042402;28;20636;-73
2021/07/06 02:01:28;;;;;;;5.57;4.10;;;;;;;16.33;49.72;100515.22;5039658;28;20112;-71
2021/07/06 02:03:53;;;;;;;10.07;3.50;;;;;;;16.28;49.80;100504.13;5021936;28;20255;-72
2021/07/06 02:06:19;;;;;;;6.60;3.95;;;;;;;16.12;50.33;100485.91;5042538;28;20097;-73
2021/07/06 02:08:45;;;;;;;6.10;3.60;;;;;;;16.24;50.34;100486.84;5039331;28;20417;-67
2021/07/06 02:11:12;;;;;;;8.02;3.60;;;;;;;16.03;50.71;100476.00;5041857;28;20031;-68
2021/07/06 02:13:37;;;;;;;11.25;4.07;;;;;;;16.18;50.44;100487.28;5049604;28;20049;-68
2021/07/06 02:16:03;;;;;;;6.00;3.42;;;;;;;16.21;50.23;100479.16;5046208;28;20334;-70
2021/07/06 02:18:29;;;;;;;8.35;3.20;;;;;;;15.97;51.05;100479.91;5045218;28;20088;-68
2021/07/06 02:20:57;;;;;;;3.78;3.00;;;;;;;16.06;50.93;100482.84;5046323;28;20049;-67
2021/07/06 02:23:24;;;;;;;5.32;3.20;;;;;;;16.12;50.88;100482.44;5044123;28;20161;-68
2021/07/06 02:25:50;;;;;;;5.32;3.17;;;;;;;16.12;50.86;100483.28;5040720;28;20124;-68
2021/07/06 02:28:16;;;;;;;9.02;3.50;;;;;;;16.06;50.78;100485.50;5043440;28;20176;-68
2021/07/06 02:30:42;;;;;;;3.97;3.45;;;;;;;16.21;50.80;100487.06;5038367;28;20162;-67
2021/07/06 02:33:07;;;;;;;8.95;3.90;;;;;;;16.08;50.91;100486.22;5041044;28;20033;-69
2021/07/06 02:35:33;;;;;;;4.00;3.53;;;;;;;16.11;50.81;100483.41;5044614;28;20037;-68
2021/07/06 02:38:01;;;;;;;6.57;3.05;;;;;;;16.21;50.88;100476.53;5044598;28;20043;-67
2021/07/06 02:40:27;;;;;;;7.18;3.47;;;;;;;15.98;51.37;100473.66;5045900;28;20036;-67
2021/07/06 02:42:53;;;;;;;6.10;3.20;;;;;;;16.21;50.94;100472.09;5044513;28;20033;-67
2021/07/06 02:45:20;;;;;;;4.47;3.22;;;;;;;16.24;50.70;100468.38;5042245;28;20040;-70
2021/07/06 02:47:47;;;;;;;3.55;2.90;;;;;;;16.17;51.11;100454.78;5041087;28;20029;-69
2021/07/06 02:50:13;;;;;;;5.03;3.38;;;;;;;16.12;51.51;100458.72;5042955;28;20477;-69
2021/07/06 02:52:39;;;;;;;6.55;3.40;;;;;;;16.17;50.97;100444.25;5042557;28;20059;-68
2021/07/06 02:55:06;;;;;;;5.20;3.30;;;;;;;15.90;51.80;100439.06;5042560;28;20064;-69
2021/07/06 02:57:35;;;;;;;7.07;3.30;;;;;;;15.82;52.19;100443.19;5055986;28;20047;-68
2021/07/06 03:00:08;;;;;;;5.85;2.83;;;;;;;15.61;52.65;100456.06;5043801;28;20532;-69
2021/07/06 03:02:34;;;;;;;8.25;3.80;;;;;;;15.84;52.27;100467.66;5046217;28;20085;-69
2021/07/06 03:05:00;;;;;;;6.10;3.72;;;;;;;15.85;52.19;100458.81;5045480;28;20024;-68
2021/07/06 03:07:25;;;;;;;7.30;3.78;;;;;;;15.91;51.99;100461.88;5041488;28;20669;-67
2021/07/06 03:09:51;;;;;;;6.88;3.13;;;;;;;15.95;52.06;100450.16;5049495;28;20041;-67
2021/07/06 03:12:16;;;;;;;6.20;3.38;;;;;;;15.95;52.15;100436.13;5044445;28;20032;-68
2021/07/06 03:14:42;;;;;;;4.97;3.17;;;;;;;16.06;51.79;100425.69;5047059;28;20056;-69
2021/07/06 03:17:07;;;;;;;4.03;3.50;;;;;;;16.16;51.73;100431.19;5042974;28;20040;-69
2021/07/06 03:19:33;;;;;;;6.47;3.40;;;;;;;16.18;51.69;100429.28;5042733;28;20043;-70
2021/07/06 03:21:58;;;;;;;4.10;3.28;;;;;;;15.99;52.36;100425.28;5040785;28;20037;-67
2021/07/06 03:24:24;;;;;;;8.32;2.88;;;;;;;16.12;51.82;100427.06;5042068;28;20428;-71
2021/07/06 03:26:49;;;;;;;5.50;2.75;;;;;;;16.04;52.31;100429.41;5040997;28;20037;-70
2021/07/06 03:29:15;;;;;;;4.20;2.70;;;;;;;16.03;52.18;100425.09;5044219;28;20056;-70
2021/07/06 03:31:40;;;;;;;4.75;3.13;;;;;;;16.03;52.53;100431.19;5044868;28;20044;-70
2021/07/06 03:34:06;;;;;;;4.40;2.90;;;;;;;16.25;52.14;100441.06;5042540;28;20033;-70
2021/07/06 03:36:31;;;;;;;5.28;2.50;;;;;;;15.98;52.66;100439.41;5047265;28;20037;-71
2021/07/06 03:38:56;;;;;;;3.47;2.97;;;;;;;16.08;52.41;100439.63;5043320;28;20087;-68
2021/07/06 03:41:22;;;;;;;5.72;3.30;;;;;;;16.05;52.67;100433.75;5040586;28;20648;-70
2021/07/06 03:43:47;;;;;;;2.92;2.45;;;;;;;16.26;52.38;100428.72;5042617;28;20037;-71
2021/07/06 03:46:13;;;;;;;3.47;2.90;;;;;;;16.18;52.28;100431.91;5042603;28;20152;-71
2021/07/06 03:48:38;;;;;;;3.83;3.08;;;;;;;16.27;52.46;100418.09;5040695;28;20083;-67
2021/07/06 03:51:04;;;;;;;2.40;2.20;;;;;;;16.06;52.85;100406.41;5041974;28;20072;-66
2021/07/06 03:53:29;;;;;;;5.75;3.40;;;;;;;16.20;52.50;100406.28;5040641;28;20033;-72
2021/07/06 03:55:55;;;;;;;5.05;3.47;;;;;;;16.15;52.73;100405.75;5042865;28;20455;-71
2021/07/06 03:58:20;;;;;;;6.53;2.75;;;;;;;16.29;52.27;100400.34;5043566;28;20029;-70
2021/07/06 04:00:46;;;;;;;8.05;3.25;;;;;;;16.33;52.83;100399.19;5041569;28;20531;-72
2021/07/06 04:03:11;;;;;;;5.03;3.45;;;;;;;16.29;52.64;100403.00;5041802;28;20040;-74
2021/07/06 04:05:37;;;;;;;4.13;2.72;;;;;;;16.31;52.82;100393.19;5045998;28;20037;-69
2021/07/06 04:08:03;;;;;;;2.72;2.53;;;;;;;16.07;53.11;100387.88;5041006;28;20119;-69
2021/07/06 04:10:28;;;;;;;4.32;2.40;;;;;;;16.46;52.33;100379.81;5041150;28;20049;-67
2021/07/06 04:12:54;;;;;;;4.78;2.80;;;;;;;16.44;52.35;100387.00;5041998;28;20041;-65
2021/07/06 04:15:20;;;;;;;3.30;2.35;;;;;;;16.52;52.28;100389.94;5042797;28;20048;-68
2021/07/06 04:17:46;;;;;;;4.10;2.65;;;;;;;16.58;52.06;100389.50;5046640;28;20144;-69
2021/07/06 04:20:13;;;;;;;4.88;2.63;;;;;;;16.40;52.62;100387.25;5039896;28;20032;-67
2021/07/06 04:22:39;;;;;;;5.35;2.50;;;;;;;16.53;52.41;100381.06;5035817;28;20123;-69
2021/07/06 04:25:06;;;;;;;4.88;2.92;;;;;;;16.60;52.31;100382.31;5040093;28;20105;-67
2021/07/06 04:27:31;;;;;;;2.17;1.90;;;;;;;16.60;52.34;100377.03;5039102;28;20033;-67
2021/07/06 04:29:57;;;;;;;2.67;2.47;;;;;;;16.30;53.29;100385.38;5037796;28;20397;-68
2021/07/06 04:32:22;;;;;;;3.25;2.42;;;;;;;16.64;52.41;100378.47;5037665;28;20028;-68
2021/07/06 04:34:49;;;;;;;2.75;2.55;;;;;;;16.75;52.16;100375.91;5038961;28;20485;-67
2021/07/06 04:37:15;;;;;;;2.70;1.92;;;;;;;16.75;52.52;100370.63;5040054;28;20120;-67
2021/07/06 04:39:41;;;;;;;2.08;1.88;;;;;;;17.13;51.47;100380.13;5039130;28;20032;-68
2021/07/06 04:42:12;;;;;;;2.58;2.38;;;;;;;17.47;50.95;100382.00;5039529;28;20093;-67
2021/07/06 04:44:38;;;;;;;2.95;2.20;;;;;;;17.48;50.69;100379.28;5041892;28;20067;-68
2021/07/06 04:47:04;;;;;;;15.45;3.42;;;;;;;17.72;50.08;100370.41;5040514;28;20049;-67
2021/07/06 04:49:30;;;;;;;2.35;2.10;;;;;;;17.50;50.69;100355.38;5039435;28;20045;-67
2021/07/06 04:51:56;;;;;;;5.72;1.63;;;;;;;17.50;50.68;100361.50;5036969;28;20128;-68
2021/07/06 04:54:24;;;;;;;5.38;1.98;;;;;;;17.35;50.92;100354.72;5039804;28;20079;-67
2021/07/06 04:56:51;;;;;;;2.63;2.08;;;;;;;17.27;50.87;100360.59;5040301;28;20398;-67
2021/07/06 04:59:18;;;;;;;3.60;1.65;;;;;;;17.36;51.38;100359.06;5043509;28;20029;-67
2021/07/06 05:01:43;;;;;;;5.55;1.70;;;;;;;17.48;50.86;100360.78;5043971;28;20082;-67
2021/07/06 05:04:09;;;;;;;2.03;1.83;;;;;;;17.82;49.90;100358.13;5021620;28;20119;-66
2021/07/06 05:06:36;;;;;;;6.15;2.08;;;;;;;17.93;49.81;100352.84;5040415;28;20048;-66
2021/07/06 05:09:02;;;;;;;2.30;1.38;;;;;;;17.76;49.93;100340.97;5037724;28;20075;-67
2021/07/06 05:11:27;;;;;;;2.13;1.67;;;;;;;17.90;49.67;100339.88;5041726;28;20481;-67
2021/07/06 05:13:53;;;;;;;3.30;1.45;;;;;;;17.97;49.74;100343.69;5040161;28;20553;-67
2021/07/06 05:16:18;;;;;;;4.82;2.90;;;;;;;18.91;48.32;100349.34;5042691;28;20029;-68
2021/07/06 05:18:46;;;;;;;2.38;0.95;;;;;;;19.80;45.30;100331.16;5037873;28;20067;-66
2021/07/06 05:21:11;;;;;;;4.60;0.95;;;;;;;21.20;42.14;100336.25;5041028;28;20026;-66
2021/07/06 05:23:37;;;;;;;3.60;1.00;;;;;;;21.24;41.52;100338.47;5037602;28;20045;-66
2021/07/06 05:26:03;;;;;;;1.10;1.00;;;;;;;22.17;41.18;100339.38;5039076;28;20040;-70
2021/07/06 05:28:29;;;;;;;1.30;1.10;;;;;;;22.54;38.97;100348.22;5043116;28;20029;-69
2021/07/06 05:30:55;;;;;;;1.98;1.17;;;;;;;23.13;37.93;100332.53;5040260;28;20037;-69
2021/07/06 05:33:21;;;;;;;3.83;0.77;;;;;;;23.92;35.87;100338.63;5039436;28;22932;-69
2021/07/06 05:35:47;;;;;;;3.63;0.98;;;;;;;23.54;36.63;100341.66;5041229;28;20046;-69
2021/07/06 05:38:13;;;;;;;1.65;0.93;;;;;;;22.05;40.14;100339.69;5040951;28;20079;-70
2021/07/06 05:40:39;;;;;;;1.13;0.70;;;;;;;20.61;42.54;100314.25;5043562;28;20052;-70
2021/07/06 05:43:09;;;;;;;1.08;0.65;;;;;;;20.39;43.24;100321.50;5036725;28;20037;-69
2021/07/06 05:45:35;;;;;;;1.63;0.90;;;;;;;21.56;41.27;100326.66;5041532;28;20033;-69
2021/07/06 05:48:01;;;;;;;3.03;0.68;;;;;;;21.98;40.04;100339.47;5046641;28;20048;-68
2021/07/06 05:50:26;;;;;;;1.48;0.60;;;;;;;21.52;40.95;100349.22;5043097;28;20515;-69
2021/07/06 05:52:52;;;;;;;1.23;0.40;;;;;;;22.88;38.62;100351.03;5041016;28;20048;-69
2021/07/06 05:55:18;;;;;;;3.15;1.00;;;;;;;23.59;37.80;100342.00;5052951;28;20025;-71
2021/07/06 05:57:44;;;;;;;2.70;1.40;;;;;;;24.08;36.01;100333.34;5044907;28;20505;-69
2021/07/06 06:00:14;;;;;;;2.50;0.80;;;;;;;24.72;34.33;100314.88;5043349;28;20031;-70
2021/07/06 06:02:40;;;;;;;4.90;0.75;;;;;;;26.15;32.85;100325.66;5041354;28;20449;-69
2021/07/06 06:05:07;;;;;;;1.98;0.82;;;;;;;27.29;30.25;100325.72;5039627;28;20041;-69
2021/07/06 06:07:38;;;;;;;0.60;0.32;;;;;;;28.03;29.58;100320.28;5042434;28;20043;-68
2021/07/06 06:10:05;;;;;;;2.53;0.60;;;;;;;28.48;28.83;100314.75;5037919;28;20029;-69
2021/07/06 06:12:31;;;;;;;2.10;0.70;;;;;;;27.33;30.23;100318.97;5042753;28;20029;-69
2021/07/06 06:14:57;;;;;;;1.10;0.63;;;;;;;27.35;29.36;100316.13;5044955;28;20090;-69
2021/07/06 06:17:22;;;;;;;1.80;0.65;;;;;;;28.54;28.20;100308.59;5048780;28;20075;-74
2021/07/06 06:19:48;;;;;;;4.72;0.47;;;;;;;28.64;28.39;100311.81;5046891;28;20029;-72
2021/07/06 06:22:13;;;;;;;0.65;0.35;;;;;;;29.49;27.56;100306.34;5042248;28;20068;-68
2021/07/06 06:24:39;;;;;;;1.02;0.32;;;;;;;29.42;27.52;100300.13;5045048;28;20565;-72
2021/07/06 06:27:04;;;;;;;2.88;0.40;;;;;;;30.27;26.34;100298.75;5042047;28;20034;-70
2021/07/06 06:29:30;;;;;;;2.60;0.30;;;;;;;31.33;25.11;100300.50;5044212;28;20041;-70
2021/07/06 06:31:55;;;;;;;3.35;0.40;;;;;;;28.48;27.33;100293.25;5042066;28;20120;-69
2021/07/06 06:34:21;;;;;;;0.85;0.30;;;;;;;28.24;30.01;100306.06;5044344;28;20418;-70
2021/07/06 06:36:46;;;;;;;1.55;0.45;;;;;;;27.20;30.66;100305.38;5042073;28;20100;-69
2021/07/06 06:39:11;;;;;;;1.27;0.38;;;;;;;27.52;30.00;100305.00;5044001;28;20067;-69
2021/07/06 06:41:37;;;;;;;4.22;0.40;;;;;;;28.64;28.23;100298.38;5045834;28;20033;-68
2021/07/06 06:44:03;;;;;;;0.73;0.20;;;;;;;28.46;28.05;100295.31;5043242;28;20033;-69
2021/07/06 06:46:28;;;;;;;4.65;0.22;;;;;;;26.43;31.13;100285.78;5041900;28;20041;-68
2021/07/06 06:48:53;;;;;;;1.17;0.30;;;;;;;25.52;32.60;100284.69;5045594;28;20072;-67
2021/07/06 06:51:19;;;;;;;1.95;0.40;;;;;;;24.51;35.31;100286.03;5048856;28;20087;-68
2021/07/06 06:53:45;;;;;;;1.75;0.20;;;;;;;23.14;37.42;100288.88;5038954;28;20092;-67
2021/07/06 06:56:10;;;;;;;0.63;0.30;;;;;;;22.22;39.44;100291.00;5040432;28;20104;-68
2021/07/06 06:58:36;;;;;;;2.38;0.50;;;;;;;21.35;40.66;100293.16;5042029;28;20033;-68
2021/07/06 07:01:02;;;;;;;1.48;0.40;;;;;;;21.77;40.59;100284.69;5042271;28;20119;-67
2021/07/06 07:03:27;;;;;;;0.93;0.40;;;;;;;22.12;39.55;100284.94;5043209;28;20040;-68
2021/07/06 07:05:53;;;;;;;2.10;0.30;;;;;;;21.42;40.88;100279.25;5042090;28;20469;-68
2021/07/06 07:08:20;;;;;;;4.00;0.47;;;;;;;21.08;41.65;100279.78;5040742;28;20037;-68
2021/07/06 07:10:47;;;;;;;12.70;0.60;;;;;;;21.66;41.51;100273.41;5041393;28;20033;-67
2021/07/06 07:13:13;;;;;;;2.83;0.50;;;;;;;21.87;40.57;100262.50;5039672;28;20116;-68
2021/07/06 07:15:39;;;;;;;2.45;0.30;;;;;;;21.42;42.90;100265.94;5042282;28;20036;-70
2021/07/06 07:18:05;;;;;;;2.42;1.13;;;;;;;20.70;42.64;100260.28;5043888;28;20029;-68
2021/07/06 07:20:31;;;;;;;1.55;0.40;;;;;;;20.79;42.69;100264.72;5040283;28;20871;-68
2021/07/06 07:22:57;;;;;;;3.45;1.00;;;;;;;20.58;43.42;100258.78;5043053;28;20072;-67
2021/07/06 07:25:23;;;;;;;1.38;0.73;;;;;;;20.67;42.97;100247.31;5039617;28;20064;-68
2021/07/06 07:27:50;;;;;;;1.00;0.57;;;;;;;20.08;44.10;100238.50;5044571;28;20041;-68
2021/07/06 07:30:18;;;;;;;0.85;0.30;;;;;;;20.23;44.29;100249.56;5043089;28;20041;-68
2021/07/06 07:32:44;;;;;;;0.90;0.30;;;;;;;19.90;44.82;100259.56;5039791;28;20037;-68
2021/07/06 07:35:10;;;;;;;1.00;0.55;;;;;;;20.01;45.19;100248.00;5041502;28;20032;-68
2021/07/06 07:37:36;;;;;;;1.60;0.25;;;;;;;19.81;45.25;100261.22;5041103;28;20037;-68
2021/07/06 07:40:04;;;;;;;2.92;0.80;;;;;;;19.93;45.78;100259.31;5039720;28;20489;-68
2021/07/06 07:42:30;;;;;;;0.95;0.20;;;;;;;19.92;45.78;100260.25;5041147;28;20028;-67
2021/07/06 07:44:56;;;;;;;3.10;0.40;;;;;;;20.30;45.05;100248.03;5055453;28;20033;-68
2021/07/06 07:47:21;;;;;;;0.95;0.30;;;;;;;20.10;45.50;100250.66;5038760;28;20092;-68
2021/07/06 07:49:47;;;;;;;1.55;0.70;;;;;;;20.37;44.65;100249.13;5039304;28;20064;-67
2021/07/06 07:52:12;;;;;;;7.20;1.10;;;;;;;20.09;44.70;100256.94;5038026;28;20514;-69
2021/07/06 07:54:38;;;;;;;0.95;0.35;;;;;;;20.69;44.06;100254.16;5037294;28;20040;-68
2021/07/06 07:57:07;;;;;;;1.60;0.20;;;;;;;20.52;43.47;100253.03;5038851;28;20039;-68
2021/07/06 07:59:33;;;;;;;3.38;0.20;;;;;;;20.60;43.58;100254.16;5038482;28;20385;-68
2021/07/06 08:01:59;;;;;;;1.88;0.20;;;;;;;20.70;43.22;100258.47;5045020;28;20035;-68
2021/07/06 08:04:24;;;;;;;0.98;0.28;;;;;;;20.70;43.07;100254.97;5040269;28;20044;-68
2021/07/06 08:06:50;;;;;;;1.98;0.20;;;;;;;20.50;43.47;100257.66;5039769;28;20044;-68
2021/07/06 08:09:15;;;;;;;1.20;0.20;;;;;;;19.76;44.57;100258.13;5037159;28;20092;-68
2021/07/06 08:11:41;;;;;;;0.90;0.40;;;;;;;20.26;44.28;100251.94;5039500;28;20041;-68
2021/07/06 08:14:06;;;;;;;3.13;0.30;;;;;;;20.54;43.38;100268.84;5038206;28;20021;-68
2021/07/06 08:16:32;;;;;;;0.60;0.13;;;;;;;20.60;43.51;100280.72;5039060;28;20352;-68
2021/07/06 08:18:58;;;;;;;2.20;0.30;;;;;;;19.85;44.55;100261.78;5035937;28;20028;-68
2021/07/06 08:21:23;;;;;;;1.05;0.30;;;;;;;20.27;44.38;100274.84;5041391;28;20478;-68
2021/07/06 08:23:49;;;;;;;1.83;0.30;;;;;;;20.12;44.38;100269.91;5037449;28;20034;-69
2021/07/06 08:26:17;;;;;;;0.65;0.20;;;;;;;20.26;44.08;100257.25;5037035;28;20064;-68
2021/07/06 08:28:45;;;;;;;2.20;0.50;;;;;;;20.26;44.04;100254.59;5038722;28;20505;-68
2021/07/06 08:31:10;;;;;;;2.58;0.30;;;;;;;20.38;44.64;100245.53;5034806;28;20043;-69
2021/07/06 08:33:35;;;;;;;1.48;0.30;;;;;;;20.57;43.78;100259.75;5036978;28;20044;-68
2021/07/06 08:36:01;;;;;;;0.88;0.30;;;;;;;20.65;43.78;100257.22;5035550;28;20045;-68
2021/07/06 08:38:26;;;;;;;3.05;0.50;;;;;;;20.13;44.68;100258.34;5041600;28;20064;-67
2021/07/06 08:40:52;;;;;;;1.23;0.45;;;;;;;20.60;43.83;100246.22;5047939;28;20043;-67
2021/07/06 08:43:18;;;;;;;2.35;0.30;;;;;;;20.45;44.36;100261.72;5037105;28;20094;-67
2021/07/06 08:45:44;;;;;;;1.15;0.20;;;;;;;20.72;43.83;100258.31;5039242;28;20028;-66
2021/07/06 08:48:11;;;;;;;1.55;0.30;;;;;;;20.59;43.76;100247.16;5037006;28;20041;-67
2021/07/06 08:50:37;;;;;;;4.25;0.20;;;;;;;20.59;43.98;100241.84;5033051;28;20037;-67
2021/07/06 08:53:03;;;;;;;0.77;0.35;;;;;;;20.44;43.86;100247.63;5035791;28;20029;-67
2021/07/06 08:55:28;;;;;;;1.00;0.30;;;;;;;20.64;43.94;100236.94;5038473;28;20055;-70
2021/07/06 08:57:54;;;;;;;2.45;0.30;;;;;;;20.49;43.63;100248.03;5037647;28;20094;-69
2021/07/06 09:00:22;;;;;;;0.60;0.20;;;;;;;20.84;43.33;100257.22;5034571;28;20037;-68
2021/07/06 09:02:59;;;;;;;0.60;0.30;;;;;;;20.04;45.22;100248.56;5034702;28;20081;-68
2021/07/06 09:05:25;;;;;;;3.95;0.40;;;;;;;20.52;44.05;100236.28;5035740;28;20051;-67
2021/07/06 09:07:51;;;;;;;0.52;0.20;;;;;;;20.51;43.72;100245.25;5038742;28;20523;-68
2021/07/06 09:10:19;;;;;;;1.65;0.30;;;;;;;20.50;43.93;100255.00;5037958;28;20033;-68
2021/07/06 09:12:45;;;;;;;1.52;0.20;;;;;;;20.39;43.85;100241.88;5037194;28;20037;-67
2021/07/06 09:15:23;;;;;;;1.67;0.20;;;;;;;20.11;44.10;100249.69;5034726;28;20385;-68
2021/07/06 09:18:15;;;;;;;1.10;0.30;;;;;;;20.48;43.93;100256.94;5034923;28;20025;-68
2021/07/06 09:20:43;;;;;;;0.30;0.20;;;;;;;20.58;43.55;100250.81;5035133;28;20126;-68
2021/07/06 09:23:37;;;;;;;1.83;0.28;;;;;;;20.57;43.60;100257.09;5034683;28;20060;-67
2021/07/06 09:26:04;;;;;;;1.00;0.20;;;;;;;20.50;43.50;100264.78;5036127;28;20044;-68
2021/07/06 09:28:33;;;;;;;0.85;0.30;;;;;;;20.54;43.30;100276.78;5036432;28;20090;-68
2021/07/06 09:31:16;;;;;;;0.75;0.20;;;;;;;20.67;42.79;100264.06;5040005;28;20127;-68
2021/07/06 09:33:49;;;;;;;0.40;0.10;;;;;;;20.81;42.18;100254.81;5042110;28;20029;-68
2021/07/06 09:36:34;;;;;;;1.27;0.10;;;;;;;20.39;43.36;100265.75;5045901;28;20116;-68
2021/07/06 09:39:10;;;;;;;2.15;0.20;;;;;;;21.02;42.76;100264.44;5038344;28;20047;-68
2021/07/06 09:41:37;;;;;;;1.10;0.20;;;;;;;20.99;42.79;100264.72;5038535;28;20503;-68
2021/07/06 09:44:26;;;;;;;2.85;0.20;;;;;;;21.02;41.84;100265.28;5036266;28;20540;-68
2021/07/06 09:47:12;;;;;;;5.15;0.40;;;;;;;21.22;42.17;100270.50;5030394;28;20045;-68
2021/07/06 09:49:55;;;;;;;1.42;0.35;;;;;;;21.57;41.85;100264.50;5040933;28;20074;-68
2021/07/06 09:52:21;;;;;;;1.77;0.30;;;;;;;21.60;41.61;100269.56;5041147;28;20265;-68
2021/07/06 09:54:51;;;;;;;0.90;0.30;;;;;;;21.40;41.93;100268.78;5041413;28;20119;-68
2021/07/06 09:59:58;;;;;;;1.13;0.20;;;;;;;21.50;41.44;100260.78;5035339;28;20140;-68
2021/07/06 10:02:26;;;;;;;0.90;0.20;;;;;;;21.56;41.40;100265.50;5052414;28;20041;-68
2021/07/06 10:04:55;;;;;;;1.88;0.30;;;;;;;21.90;40.84;100264.88;5036521;28;20552;-69
2021/07/06 10:07:23;;;;;;;1.25;0.20;;;;;;;21.79;40.15;100268.59;5035988;28;20029;-69
2021/07/06 10:09:49;;;;;;;2.45;0.40;;;;;;;21.47;40.86;100264.56;5038053;28;20443;-70
2021/07/06 10:12:21;;;;;;;1.00;0.20;;;;;;;21.69;41.07;100265.13;5041148;28;20110;-68
2021/07/06 10:14:48;;;;;;;0.45;0.20;;;;;;;21.83;40.25;100269.13;5044265;28;20037;-69
2021/07/06 10:17:14;;;;;;;0.90;0.35;;;;;;;21.54;40.41;100272.78;5040881;28;20382;-69
2021/07/06 10:19:42;;;;;;;2.08;0.30;;;;;;;21.82;39.92;100273.59;5036093;28;20262;-68
2021/07/06 10:22:09;;;;;;;1.10;0.20;;;;;;;21.89;39.83;100264.06;5037179;28;20118;-69
2021/07/06 10:24:43;;;;;;;1.30;0.10;;;;;;;21.97;39.30;100274.75;5035904;28;20091;-69
2021/07/06 10:27:24;;;;;;;0.80;0.10;;;;;;;22.39;38.50;100273.38;5035432;28;20040;-69
2021/07/06 10:30:09;;;;;;;0.80;0.28;;;;;;;22.23;38.06;100294.53;5045832;28;20037;-69
2021/07/06 10:32:40;;;;;;;1.92;0.15;;;;;;;22.71;37.29;100280.78;5041084;28;20041;-68
2021/07/06 10:35:08;;;;;;;0.32;0.10;;;;;;;23.38;36.03;100272.22;5037969;28;20029;-68
2021/07/06 10:37:34;;;;;;;1.75;0.20;;;;;;;23.22;37.16;100288.94;5040468;28;20676;-69
2021/07/06 10:40:14;;;;;;;0.45;0.10;;;;;;;22.85;35.78;100282.06;5041050;28;20049;-69
2021/07/06 10:42:40;;;;;;;0.43;0.10;;;;;;;23.08;36.01;100281.53;5038563;28;20063;-68
2021/07/06 10:45:23;;;;;;;0.77;0.10;;;;;;;23.33;36.87;100279.88;5043643;28;20390;-69
2021/07/06 10:47:51;;;;;;;4.97;0.20;;;;;;;22.70;37.10;100283.63;5044138;28;20057;-69
2021/07/06 10:50:31;;;;;;;2.40;0.10;;;;;;;22.71;37.10;100263.97;5042826;28;20030;-69
2021/07/06 10:53:15;;;;;;;0.40;0.10;;;;;;;22.10;37.61;100282.41;5044487;28;20326;-69
2021/07/06 10:55:42;;;;;;;0.43;0.10;;;;;;;22.42;37.35;100286.34;5046514;28;20032;-69
2021/07/06 10:58:08;;;;;;;0.50;0.20;;;;;;;22.75;36.88;100287.47;5060743;28;20030;-68
2021/07/06 11:00:45;;;;;;;1.95;0.10;;;;;;;22.59;36.40;100277.50;5041003;28;20037;-69
2021/07/06 11:03:15;;;;;;;5.65;0.30;;;;;;;22.11;37.11;100273.44;5039404;28;20030;-69
2021/07/06 11:05:41;;;;;;;0.70;0.20;;;;;;;22.62;36.14;100288.84;5040713;28;20067;-69
2021/07/06 11:08:07;;;;;;;0.73;0.10;;;;;;;22.70;35.98;100281.78;5038904;28;20080;-68
2021/07/06 11:10:36;;;;;;;1.08;0.13;;;;;;;23.64;34.56;100282.81;5041103;28;20044;-69
2021/07/06 11:13:16;;;;;;;9.60;0.30;;;;;;;23.30;35.69;100291.69;5041953;28;20122;-69
2021/07/06 11:15:41;;;;;;;0.60;0.45;;;;;;;23.33;35.40;100285.19;5041213;28;20028;-70
2021/07/06 11:18:11;;;;;;;1.05;0.10;;;;;;;22.86;35.92;100299.72;5041227;28;20098;-69
2021/07/06 11:20:36;;;;;;;0.77;0.10;;;;;;;23.71;35.28;100291.84;5041581;28;20033;-69
2021/07/06 11:23:04;;;;;;;0.20;0.10;;;;;;;24.11;33.98;100282.28;5043066;28;20378;-69
2021/07/06 11:25:36;;;;;;;0.20;0.08;;;;;;;24.05;34.21;100290.97;5070495;28;20029;-69
2021/07/06 11:28:28;;;;;;;1.85;0.10;;;;;;;24.20;33.81;100297.31;5043987;28;20478;-69